Time;durP1;ratioP1;P1;durP2;ratioP2;P2;SDS_P1;SDS_P2;PMS_P1;PMS_P2;Temp;Humidity;BMP_temperature;BMP_pressure;BME280_temperature;BME280_humidity;BME280_pressure;Samples;Min_cycle;Max_cycle;Signal;HPM_P1;HPM_P2
2021/04/02 00:01:18;;;;;;;;;;;21.10;42.30;;;;;;491598;240;1088;-69
2021/04/02 00:03:19;;;;;;;;;;;21.00;42.20;;;;;;491638;240;1118;-69
2021/04/02 00:05:21;;;;;;;;;;;21.00;42.20;;;;;;491666;240;1284;-69
2021/04/02 00:07:22;;;;;;;;;;;21.10;42.20;;;;;;491620;240;1062;-69
2021/04/02 00:09:23;;;;;;;;;;;21.10;42.20;;;;;;491648;240;2184;-69
2021/04/02 00:11:24;;;;;;;;;;;21.00;42.30;;;;;;491606;240;1106;-69
2021/04/02 00:13:26;;;;;;;;;;;21.10;42.30;;;;;;491703;240;1098;-69
2021/04/02 00:15:27;;;;;;;;;;;21.10;42.20;;;;;;491610;240;1006;-69
2021/04/02 00:17:28;;;;;;;;;;;21.10;42.20;;;;;;491648;240;978;-69
2021/04/02 00:19:29;;;;;;;;;;;21.00;42.20;;;;;;491760;240;1066;-69
2021/04/02 00:21:31;;;;;;;;;;;21.10;42.30;;;;;;491616;240;1188;-69
2021/04/02 00:23:33;;;;;;;;;;;21.00;42.20;;;;;;491657;240;993;-69
2021/04/02 00:25:33;;;;;;;;;;;21.00;42.20;;;;;;491691;241;1412;-69
2021/04/02 00:27:35;;;;;;;;;;;21.00;42.20;;;;;;491582;240;1053;-69
2021/04/02 00:29:36;;;;;;;;;;;21.20;42.10;;;;;;491641;240;2191;-69
2021/04/02 00:31:37;;;;;;;;;;;21.10;42.10;;;;;;491566;240;1003;-69
2021/04/02 00:33:38;;;;;;;;;;;21.20;42.10;;;;;;491610;240;972;-69
2021/04/02 00:35:40;;;;;;;;;;;21.10;42.00;;;;;;491765;240;1284;-69
2021/04/02 00:37:41;;;;;;;;;;;21.10;42.10;;;;;;491662;240;1053;-69
2021/04/02 00:39:42;;;;;;;;;;;21.10;42.10;;;;;;491707;240;989;-69
2021/04/02 00:41:44;;;;;;;;;;;21.10;42.10;;;;;;491602;240;1188;-69
2021/04/02 00:43:45;;;;;;;;;;;21.10;42.20;;;;;;491699;240;935;-69
2021/04/02 00:45:46;;;;;;;;;;;21.10;42.10;;;;;;491685;240;1149;-70
2021/04/02 00:47:47;;;;;;;;;;;21.10;42.10;;;;;;491583;240;1139;-69
2021/04/02 00:49:49;;;;;;;;;;;21.20;42.10;;;;;;491743;240;2196;-69
2021/04/02 00:51:50;;;;;;;;;;;21.10;42.00;;;;;;491494;240;1189;-69
2021/04/02 00:53:51;;;;;;;;;;;21.20;42.00;;;;;;491718;240;945;-69
2021/04/02 00:55:53;;;;;;;;;;;21.20;41.90;;;;;;491653;240;1051;-69
2021/04/02 00:57:54;;;;;;;;;;;21.10;42.00;;;;;;491646;240;982;-69
2021/04/02 00:59:55;;;;;;;;;;;21.10;42.10;;;;;;491612;240;1010;-69
2021/04/02 01:01:56;;;;;;;;;;;21.20;42.00;;;;;;491661;240;1120;-69
2021/04/02 01:03:58;;;;;;;;;;;21.20;42.00;;;;;;491676;240;1135;-69
2021/04/02 01:05:59;;;;;;;;;;;21.20;41.90;;;;;;491638;240;1212;-69
2021/04/02 01:08:00;;;;;;;;;;;21.20;41.80;;;;;;491676;240;1079;-69
2021/04/02 01:10:01;;;;;;;;;;;21.20;41.80;;;;;;491608;240;2183;-69
2021/04/02 01:12:03;;;;;;;;;;;21.10;41.90;;;;;;491610;240;1044;-69
2021/04/02 01:14:04;;;;;;;;;;;21.20;41.90;;;;;;491631;240;948;-69
2021/04/02 01:16:05;;;;;;;;;;;21.20;42.00;;;;;;491565;240;1412;-69
2021/04/02 01:18:07;;;;;;;;;;;21.10;42.00;;;;;;491691;240;1084;-69
2021/04/02 01:20:08;;;;;;;;;;;21.10;41.90;;;;;;491705;240;1042;-69
2021/04/02 01:22:09;;;;;;;;;;;21.20;42.00;;;;;;491594;240;1189;-69
2021/04/02 01:24:10;;;;;;;;;;;21.10;41.90;;;;;;491817;240;1155;-69
2021/04/02 01:26:12;;;;;;;;;;;21.20;41.90;;;;;;491641;240;1211;-69
2021/04/02 01:28:13;;;;;;;;;;;21.20;41.80;;;;;;491585;240;1009;-69
2021/04/02 01:30:14;;;;;;;;;;;21.10;41.90;;;;;;491580;240;2149;-69
2021/04/02 01:32:15;;;;;;;;;;;21.10;42.00;;;;;;491528;240;1140;-69
2021/04/02 01:34:17;;;;;;;;;;;21.10;41.90;;;;;;491612;240;957;-69
2021/04/02 01:36:18;;;;;;;;;;;21.10;41.90;;;;;;491652;240;1302;-69
2021/04/02 01:38:20;;;;;;;;;;;21.10;41.90;;;;;;491630;240;975;-69
2021/04/02 01:40:21;;;;;;;;;;;21.10;41.90;;;;;;491641;240;948;-69
2021/04/02 01:42:22;;;;;;;;;;;21.00;41.90;;;;;;491659;240;1068;-69
2021/04/02 01:44:23;;;;;;;;;;;21.20;41.80;;;;;;491632;240;965;-69
2021/04/02 01:46:25;;;;;;;;;;;21.10;41.70;;;;;;491725;240;1226;-69
2021/04/02 01:48:26;;;;;;;;;;;21.20;41.80;;;;;;491635;240;1049;-69
2021/04/02 01:50:27;;;;;;;;;;;21.10;41.70;;;;;;491741;240;2187;-69
2021/04/02 01:52:29;;;;;;;;;;;21.20;41.60;;;;;;491614;240;1200;-69
2021/04/02 01:54:30;;;;;;;;;;;21.20;41.60;;;;;;491674;240;1027;-69
2021/04/02 01:56:31;;;;;;;;;;;21.10;41.60;;;;;;491525;240;1218;-69
2021/04/02 01:58:32;;;;;;;;;;;21.10;41.60;;;;;;491633;240;977;-69
2021/04/02 02:00:34;;;;;;;;;;;21.10;41.50;;;;;;491697;240;1112;-69
2021/04/02 02:02:35;;;;;;;;;;;21.20;41.50;;;;;;491505;240;1045;-69
2021/04/02 02:04:36;;;;;;;;;;;21.20;41.50;;;;;;491665;240;969;-69
2021/04/02 02:06:37;;;;;;;;;;;21.20;41.30;;;;;;491572;240;1334;-69
2021/04/02 02:08:39;;;;;;;;;;;21.20;41.30;;;;;;491551;240;1002;-69
2021/04/02 02:10:40;;;;;;;;;;;21.20;41.20;;;;;;491615;240;2195;-69
2021/04/02 02:12:41;;;;;;;;;;;21.20;41.40;;;;;;491725;240;1111;-69
2021/04/02 02:14:42;;;;;;;;;;;21.10;41.40;;;;;;491596;240;1091;-69
2021/04/02 02:16:44;;;;;;;;;;;21.20;41.40;;;;;;491625;240;1059;-69
2021/04/02 02:18:45;;;;;;;;;;;21.40;41.20;;;;;;491618;240;1048;-69
2021/04/02 02:20:46;;;;;;;;;;;21.50;40.80;;;;;;491614;240;975;-69
2021/04/02 02:22:48;;;;;;;;;;;21.80;40.20;;;;;;491556;240;1155;-69
2021/04/02 02:24:49;;;;;;;;;;;21.90;39.80;;;;;;491664;240;993;-69
2021/04/02 02:26:50;;;;;;;;;;;21.90;39.60;;;;;;491599;240;1104;-69
2021/04/02 02:28:51;;;;;;;;;;;22.10;39.40;;;;;;491629;240;1079;-69
2021/04/02 02:30:53;;;;;;;;;;;22.20;39.30;;;;;;491588;240;2152;-69
2021/04/02 02:32:54;;;;;;;;;;;22.10;39.30;;;;;;491553;240;980;-69
2021/04/02 02:34:55;;;;;;;;;;;22.00;39.30;;;;;;491599;240;950;-69
2021/04/02 02:36:57;;;;;;;;;;;22.00;39.50;;;;;;491575;240;1136;-69
2021/04/02 02:38:58;;;;;;;;;;;22.00;39.40;;;;;;491651;240;1143;-69
2021/04/02 02:40:59;;;;;;;;;;;21.90;39.40;;;;;;491648;240;1160;-69
2021/04/02 02:43:00;;;;;;;;;;;22.00;39.40;;;;;;491672;240;944;-69
2021/04/02 02:45:02;;;;;;;;;;;22.00;39.30;;;;;;491630;240;958;-69
2021/04/02 02:47:03;;;;;;;;;;;22.00;39.30;;;;;;491520;240;1195;-69
2021/04/02 02:49:04;;;;;;;;;;;22.20;39.10;;;;;;491690;240;996;-69
2021/04/02 02:51:05;;;;;;;;;;;22.10;39.10;;;;;;491536;240;2200;-69
2021/04/02 02:53:07;;;;;;;;;;;22.10;39.10;;;;;;491617;240;1196;-69
2021/04/02 02:55:08;;;;;;;;;;;22.10;39.10;;;;;;491658;240;950;-69
2021/04/02 02:57:09;;;;;;;;;;;22.10;39.00;;;;;;491557;240;1065;-69
2021/04/02 02:59:11;;;;;;;;;;;22.10;38.90;;;;;;491592;240;1044;-69
2021/04/02 03:01:12;;;;;;;;;;;22.10;39.00;;;;;;491594;240;1172;-69
2021/04/02 03:03:15;;;;;;;;;;;22.20;38.90;;;;;;491583;240;974;-69
2021/04/02 03:05:15;;;;;;;;;;;22.00;38.90;;;;;;491743;241;1461;-69
2021/04/02 03:07:16;;;;;;;;;;;22.10;39.00;;;;;;491537;240;1175;-69
2021/04/02 03:09:17;;;;;;;;;;;22.10;38.90;;;;;;491529;240;969;-69
2021/04/02 03:11:18;;;;;;;;;;;22.20;38.70;;;;;;491559;240;2195;-69
2021/04/02 03:13:20;;;;;;;;;;;22.20;38.70;;;;;;491596;240;1022;-69
2021/04/02 03:15:21;;;;;;;;;;;22.10;38.80;;;;;;491605;240;1042;-69
2021/04/02 03:17:22;;;;;;;;;;;22.10;38.70;;;;;;491621;240;1103;-69
2021/04/02 03:19:24;;;;;;;;;;;22.20;38.40;;;;;;491551;240;1110;-69
2021/04/02 03:21:25;;;;;;;;;;;22.10;38.70;;;;;;491566;240;1149;-69
2021/04/02 03:23:26;;;;;;;;;;;22.10;38.70;;;;;;491709;240;1159;-69
2021/04/02 03:25:27;;;;;;;;;;;22.10;38.70;;;;;;491632;240;1107;-69
2021/04/02 03:27:29;;;;;;;;;;;22.00;38.70;;;;;;491555;240;1022;-69
2021/04/02 03:29:30;;;;;;;;;;;22.10;38.70;;;;;;491637;240;1093;-69
2021/04/02 03:31:31;;;;;;;;;;;22.10;38.60;;;;;;491645;240;2184;-69
2021/04/02 03:33:32;;;;;;;;;;;22.20;38.60;;;;;;491644;240;969;-69
2021/04/02 03:35:34;;;;;;;;;;;22.20;38.40;;;;;;491658;240;977;-69
2021/04/02 03:37:35;;;;;;;;;;;22.20;38.40;;;;;;491550;240;1159;-69
2021/04/02 03:39:37;;;;;;;;;;;22.10;38.40;;;;;;491594;240;1005;-69
2021/04/02 03:41:38;;;;;;;;;;;22.20;38.40;;;;;;491548;240;1128;-70
2021/04/02 03:43:39;;;;;;;;;;;22.20;38.30;;;;;;491684;240;1007;-69
2021/04/02 03:45:41;;;;;;;;;;;22.10;38.30;;;;;;491530;240;1142;-69
2021/04/02 03:47:42;;;;;;;;;;;22.10;38.40;;;;;;491654;240;1090;-69
2021/04/02 03:49:43;;;;;;;;;;;22.10;38.40;;;;;;491695;240;982;-69
2021/04/02 03:51:45;;;;;;;;;;;22.10;38.40;;;;;;491586;240;2240;-69
2021/04/02 03:53:46;;;;;;;;;;;22.10;38.30;;;;;;491671;240;1183;-69
2021/04/02 03:55:47;;;;;;;;;;;22.20;38.20;;;;;;491691;240;1094;-69
2021/04/02 03:57:49;;;;;;;;;;;22.10;38.30;;;;;;491641;240;934;-69
2021/04/02 03:59:50;;;;;;;;;;;22.00;38.20;;;;;;491661;240;950;-69
2021/04/02 04:01:51;;;;;;;;;;;22.10;38.10;;;;;;491601;240;1216;-69
2021/04/02 04:03:52;;;;;;;;;;;22.10;38.20;;;;;;491656;240;1007;-69
2021/04/02 04:05:54;;;;;;;;;;;22.10;38.20;;;;;;491699;240;1179;-69
2021/04/02 04:07:55;;;;;;;;;;;22.10;38.10;;;;;;491663;240;1125;-69
2021/04/02 04:09:56;;;;;;;;;;;22.10;38.00;;;;;;491641;240;976;-69
2021/04/02 04:11:58;;;;;;;;;;;22.10;38.00;;;;;;491713;240;2112;-69
2021/04/02 04:13:59;;;;;;;;;;;22.10;38.10;;;;;;491696;240;1034;-69
2021/04/02 04:16:00;;;;;;;;;;;22.00;38.10;;;;;;491587;240;976;-69
2021/04/02 04:18:01;;;;;;;;;;;22.00;38.00;;;;;;491619;240;1040;-69
2021/04/02 04:20:03;;;;;;;;;;;22.10;37.80;;;;;;491656;240;1070;-69
2021/04/02 04:22:04;;;;;;;;;;;22.00;38.00;;;;;;491593;240;1039;-69
2021/04/02 04:24:05;;;;;;;;;;;22.00;37.80;;;;;;491690;240;1147;-69
2021/04/02 04:26:07;;;;;;;;;;;22.00;37.90;;;;;;491658;240;1003;-69
2021/04/02 04:28:08;;;;;;;;;;;22.00;38.00;;;;;;491559;240;1218;-69
2021/04/02 04:30:09;;;;;;;;;;;21.90;37.90;;;;;;491673;240;984;-69
2021/04/02 04:32:10;;;;;;;;;;;22.00;37.90;;;;;;491691;240;2183;-69
2021/04/02 04:34:12;;;;;;;;;;;22.00;37.90;;;;;;491599;240;969;-69
2021/04/02 04:36:13;;;;;;;;;;;21.90;37.80;;;;;;491675;240;1155;-69
2021/04/02 04:38:14;;;;;;;;;;;22.00;37.80;;;;;;491622;240;1144;-69
2021/04/02 04:40:15;;;;;;;;;;;21.90;37.80;;;;;;491589;240;1084;-69
2021/04/02 04:42:17;;;;;;;;;;;21.90;37.80;;;;;;491616;240;1012;-69
2021/04/02 04:44:18;;;;;;;;;;;22.00;37.70;;;;;;491682;240;1067;-69
2021/04/02 04:46:19;;;;;;;;;;;22.10;37.60;;;;;;491663;240;982;-69
2021/04/02 04:48:21;;;;;;;;;;;22.10;37.50;;;;;;491614;240;1072;-69
2021/04/02 04:50:22;;;;;;;;;;;22.10;37.30;;;;;;491628;240;1272;-69
2021/04/02 04:52:23;;;;;;;;;;;22.00;37.50;;;;;;491590;240;2180;-69
2021/04/02 04:54:24;;;;;;;;;;;21.90;37.50;;;;;;491695;240;1192;-69
2021/04/02 04:56:26;;;;;;;;;;;21.90;37.40;;;;;;491598;240;1096;-69
2021/04/02 04:58:27;;;;;;;;;;;22.00;37.50;;;;;;491675;240;967;-69
2021/04/02 05:00:28;;;;;;;;;;;22.00;37.50;;;;;;491658;240;1231;-69
2021/04/02 05:02:29;;;;;;;;;;;21.90;37.40;;;;;;491668;240;1063;-69
2021/04/02 05:04:31;;;;;;;;;;;22.00;37.30;;;;;;491665;240;994;-69
2021/04/02 05:06:32;;;;;;;;;;;22.10;37.20;;;;;;491634;240;1103;-69
2021/04/02 05:08:33;;;;;;;;;;;22.30;36.90;;;;;;491639;240;1193;-69
2021/04/02 05:10:35;;;;;;;;;;;22.40;36.50;;;;;;491647;240;2191;-69
2021/04/02 05:12:36;;;;;;;;;;;22.60;36.30;;;;;;491648;240;1072;-69
2021/04/02 05:14:37;;;;;;;;;;;22.50;36.10;;;;;;491575;240;987;-69
2021/04/02 05:16:38;;;;;;;;;;;22.50;36.30;;;;;;491724;240;1115;-69
2021/04/02 05:18:40;;;;;;;;;;;22.40;36.30;;;;;;491678;240;1062;-69
2021/04/02 05:20:41;;;;;;;;;;;22.30;36.40;;;;;;491614;240;1231;-69
2021/04/02 05:22:42;;;;;;;;;;;22.20;36.70;;;;;;491586;240;997;-69
2021/04/02 05:24:44;;;;;;;;;;;22.10;36.80;;;;;;491729;240;1179;-69
2021/04/02 05:26:45;;;;;;;;;;;21.90;37.00;;;;;;491666;240;1325;-69
2021/04/02 05:28:46;;;;;;;;;;;21.90;37.10;;;;;;491754;240;1032;-69
2021/04/02 05:30:47;;;;;;;;;;;21.90;37.10;;;;;;491614;240;2148;-69
2021/04/02 05:32:49;;;;;;;;;;;22.10;36.80;;;;;;491592;240;1087;-69
2021/04/02 05:34:50;;;;;;;;;;;22.30;36.60;;;;;;491594;240;982;-69
2021/04/02 05:36:51;;;;;;;;;;;22.50;36.20;;;;;;491642;240;1230;-69
2021/04/02 05:38:53;;;;;;;;;;;22.60;36.00;;;;;;491617;240;1193;-69
2021/04/02 05:40:54;;;;;;;;;;;22.70;35.70;;;;;;491666;240;1042;-69
2021/04/02 05:42:55;;;;;;;;;;;22.90;35.50;;;;;;491568;240;1145;-69
2021/04/02 05:44:56;;;;;;;;;;;22.90;35.30;;;;;;491699;240;982;-69
2021/04/02 05:46:58;;;;;;;;;;;23.00;35.20;;;;;;491528;240;1176;-69
2021/04/02 05:48:59;;;;;;;;;;;23.10;35.10;;;;;;491596;240;1030;-69
2021/04/02 05:51:00;;;;;;;;;;;23.10;34.90;;;;;;491502;240;2175;-69
2021/04/02 05:53:01;;;;;;;;;;;23.20;34.80;;;;;;491616;240;1150;-69
2021/04/02 05:55:03;;;;;;;;;;;23.20;34.90;;;;;;491721;240;1206;-69
2021/04/02 05:57:04;;;;;;;;;;;23.10;34.90;;;;;;491616;240;1303;-69
2021/04/02 05:59:05;;;;;;;;;;;23.20;34.80;;;;;;491571;240;1167;-69
2021/04/02 06:01:07;;;;;;;;;;;23.10;34.90;;;;;;491520;240;1249;-69
2021/04/02 06:03:08;;;;;;;;;;;23.10;34.80;;;;;;491659;240;1185;-69
2021/04/02 06:05:10;;;;;;;;;;;23.30;34.60;;;;;;491580;240;982;-69
2021/04/02 06:07:11;;;;;;;;;;;23.20;34.60;;;;;;491540;240;1250;-69
2021/04/02 06:09:12;;;;;;;;;;;23.30;34.50;;;;;;491589;240;1167;-69
2021/04/02 06:11:13;;;;;;;;;;;23.40;34.40;;;;;;491555;240;2140;-69
2021/04/02 06:13:15;;;;;;;;;;;23.40;34.30;;;;;;491574;240;1104;-69
2021/04/02 06:15:18;;;;;;;;;;;23.40;34.30;;;;;;491418;240;975;-69
2021/04/02 06:17:17;;;;;;;;;;;23.50;34.30;;;;;;491532;242;1314;-69
2021/04/02 06:19:18;;;;;;;;;;;23.50;34.20;;;;;;491507;240;1195;-69
2021/04/02 06:21:20;;;;;;;;;;;23.40;34.20;;;;;;491463;240;1100;-69
2021/04/02 06:23:21;;;;;;;;;;;23.40;34.10;;;;;;491604;240;982;-69
2021/04/02 06:25:22;;;;;;;;;;;23.50;34.20;;;;;;491686;240;1206;-69
2021/04/02 06:27:24;;;;;;;;;;;23.50;34.20;;;;;;491519;240;1075;-69
2021/04/02 06:29:25;;;;;;;;;;;23.50;34.00;;;;;;491521;240;1414;-69
2021/04/02 06:31:28;;;;;;;;;;;23.50;33.90;;;;;;491605;240;2121;-69
2021/04/02 06:33:28;;;;;;;;;;;23.60;33.90;;;;;;491445;241;2027;-69
2021/04/02 06:35:29;;;;;;;;;;;23.50;33.90;;;;;;491411;240;1039;-69
2021/04/02 06:37:30;;;;;;;;;;;23.60;33.80;;;;;;491482;240;1028;-69
2021/04/02 06:39:32;;;;;;;;;;;23.60;33.80;;;;;;491540;240;1149;-69
2021/04/02 06:41:33;;;;;;;;;;;23.60;33.80;;;;;;491553;240;1078;-69
2021/04/02 06:43:34;;;;;;;;;;;23.50;33.70;;;;;;491609;240;949;-69
2021/04/02 06:45:37;;;;;;;;;;;23.60;33.80;;;;;;491534;240;1036;-69
2021/04/02 06:47:37;;;;;;;;;;;23.50;33.80;;;;;;491547;242;1494;-69
2021/04/02 06:49:38;;;;;;;;;;;23.50;33.90;;;;;;491613;240;946;-69
2021/04/02 06:51:39;;;;;;;;;;;23.50;33.90;;;;;;491448;240;2195;-69
2021/04/02 06:53:41;;;;;;;;;;;23.50;33.70;;;;;;491538;241;1170;-69
2021/04/02 06:55:42;;;;;;;;;;;23.60;33.60;;;;;;491560;240;1222;-69
2021/04/02 06:57:43;;;;;;;;;;;23.60;33.60;;;;;;491266;240;1109;-69
2021/04/02 06:59:45;;;;;;;;;;;23.60;33.60;;;;;;491321;240;1303;-69
2021/04/02 07:01:46;;;;;;;;;;;23.60;33.60;;;;;;491459;240;983;-69
2021/04/02 07:03:47;;;;;;;;;;;23.60;33.50;;;;;;491537;240;984;-69
2021/04/02 07:05:48;;;;;;;;;;;23.50;33.50;;;;;;491599;240;1061;-69
2021/04/02 07:07:50;;;;;;;;;;;23.60;33.50;;;;;;491582;240;1173;-69
2021/04/02 07:09:54;;;;;;;;;;;23.70;33.50;;;;;;491524;240;1292;-69
2021/04/02 07:11:55;;;;;;;;;;;23.60;33.40;;;;;;491472;240;2149;-69
2021/04/02 07:13:58;;;;;;;;;;;23.60;33.40;;;;;;491569;240;1130;-69
2021/04/02 07:15:58;;;;;;;;;;;23.60;33.40;;;;;;491349;240;1436;-69
2021/04/02 07:17:59;;;;;;;;;;;23.60;33.40;;;;;;491560;240;1161;-69
2021/04/02 07:20:00;;;;;;;;;;;23.60;33.20;;;;;;491462;240;1042;-69
2021/04/02 07:22:02;;;;;;;;;;;23.70;33.30;;;;;;491535;240;1059;-69
2021/04/02 07:24:03;;;;;;;;;;;23.70;33.20;;;;;;491539;240;1118;-69
2021/04/02 07:26:05;;;;;;;;;;;23.80;33.10;;;;;;491397;240;1175;-69
2021/04/02 07:28:06;;;;;;;;;;;23.80;33.20;;;;;;491481;240;1032;-69
2021/04/02 07:30:07;;;;;;;;;;;23.70;33.10;;;;;;491562;240;1030;-69
2021/04/02 07:32:08;;;;;;;;;;;23.80;33.10;;;;;;491547;240;2192;-69
2021/04/02 07:34:10;;;;;;;;;;;23.80;33.10;;;;;;491527;240;1078;-69
2021/04/02 07:36:12;;;;;;;;;;;23.80;32.80;;;;;;491447;240;998;-69
2021/04/02 07:38:13;;;;;;;;;;;23.90;32.90;;;;;;491534;242;1419;-69
2021/04/02 07:40:14;;;;;;;;;;;24.40;32.40;;;;;;491559;240;1177;-69
2021/04/02 07:42:15;;;;;;;;;;;24.10;32.40;;;;;;491582;240;971;-69
2021/04/02 07:44:17;;;;;;;;;;;24.20;32.30;;;;;;491592;240;969;-69
2021/04/02 07:46:18;;;;;;;;;;;24.10;32.50;;;;;;491624;240;1496;-69
2021/04/02 07:48:20;;;;;;;;;;;23.80;32.80;;;;;;491523;240;1546;-69
2021/04/02 07:50:20;;;;;;;;;;;23.80;32.80;;;;;;491489;240;1563;-69
2021/04/02 07:52:22;;;;;;;;;;;23.60;33.00;;;;;;491472;240;2184;-69
2021/04/02 07:54:23;;;;;;;;;;;23.60;33.20;;;;;;491580;240;1047;-69
2021/04/02 07:56:24;;;;;;;;;;;23.40;33.30;;;;;;491521;240;1208;-69
2021/04/02 07:58:25;;;;;;;;;;;23.40;33.40;;;;;;491586;240;1084;-69
2021/04/02 08:00:27;;;;;;;;;;;23.30;33.60;;;;;;491477;240;1196;-69
2021/04/02 08:02:28;;;;;;;;;;;23.20;33.60;;;;;;491539;240;1120;-69
2021/04/02 08:04:29;;;;;;;;;;;23.20;33.70;;;;;;491499;240;1035;-69
2021/04/02 08:06:31;;;;;;;;;;;23.00;34.00;;;;;;491506;240;1300;-69
2021/04/02 08:08:32;;;;;;;;;;;22.90;34.10;;;;;;491461;240;1157;-69
2021/04/02 08:10:34;;;;;;;;;;;22.80;34.20;;;;;;491475;240;1180;-69
2021/04/02 08:12:34;;;;;;;;;;;22.80;34.30;;;;;;491487;241;2256;-69
2021/04/02 08:14:36;;;;;;;;;;;22.50;34.50;;;;;;491658;240;1054;-69
2021/04/02 08:16:37;;;;;;;;;;;22.40;34.40;;;;;;491447;240;1220;-69
2021/04/02 08:18:38;;;;;;;;;;;22.40;34.50;;;;;;491605;240;1210;-69
2021/04/02 08:20:40;;;;;;;;;;;22.50;34.40;;;;;;491540;240;1019;-69
2021/04/02 08:22:41;;;;;;;;;;;22.40;34.50;;;;;;491476;240;1039;-69
2021/04/02 08:24:42;;;;;;;;;;;22.40;34.60;;;;;;491580;240;971;-69
2021/04/02 08:26:43;;;;;;;;;;;22.30;34.70;;;;;;491636;240;1196;-69
2021/04/02 08:28:45;;;;;;;;;;;22.30;34.70;;;;;;491631;240;1062;-69
2021/04/02 08:30:46;;;;;;;;;;;22.30;34.60;;;;;;491499;240;1051;-69
2021/04/02 08:32:48;;;;;;;;;;;22.30;34.50;;;;;;491434;240;2171;-69
2021/04/02 08:34:49;;;;;;;;;;;22.30;34.40;;;;;;491490;240;952;-69
2021/04/02 08:36:51;;;;;;;;;;;22.40;34.10;;;;;;491554;240;1176;-69
2021/04/02 08:38:52;;;;;;;;;;;22.20;34.30;;;;;;491436;240;1205;-69
2021/04/02 08:40:55;;;;;;;;;;;22.10;34.30;;;;;;491454;240;1170;-70
2021/04/02 08:42:54;;;;;;;;;;;22.20;34.30;;;;;;491391;241;1403;-69
2021/04/02 08:44:56;;;;;;;;;;;22.20;34.10;;;;;;491511;240;1091;-69
2021/04/02 08:46:57;;;;;;;;;;;22.20;34.20;;;;;;491571;240;1121;-69
2021/04/02 08:48:58;;;;;;;;;;;22.20;34.20;;;;;;491544;240;1025;-69
2021/04/02 08:51:00;;;;;;;;;;;22.20;34.00;;;;;;491517;240;1205;-69
2021/04/02 08:53:01;;;;;;;;;;;22.20;34.00;;;;;;491504;240;2179;-69
2021/04/02 08:55:02;;;;;;;;;;;22.10;34.10;;;;;;491543;240;1120;-69
2021/04/02 08:57:03;;;;;;;;;;;22.10;34.10;;;;;;491532;240;1173;-69
2021/04/02 08:59:05;;;;;;;;;;;22.10;34.10;;;;;;491533;240;1074;-69
2021/04/02 09:01:06;;;;;;;;;;;22.10;33.90;;;;;;491509;240;1046;-68
2021/04/02 09:03:07;;;;;;;;;;;22.10;33.80;;;;;;491494;240;964;-68
2021/04/02 09:05:10;;;;;;;;;;;22.10;34.00;;;;;;491530;240;1119;-69
2021/04/02 09:07:10;;;;;;;;;;;22.00;34.00;;;;;;491522;240;1230;-69
2021/04/02 09:09:11;;;;;;;;;;;22.00;33.70;;;;;;491469;240;967;-69
2021/04/02 09:11:12;;;;;;;;;;;22.00;34.00;;;;;;491265;240;1178;-69
2021/04/02 09:13:14;;;;;;;;;;;21.90;34.00;;;;;;491301;240;2175;-69
2021/04/02 09:15:15;;;;;;;;;;;21.90;33.90;;;;;;491353;240;1083;-69
2021/04/02 09:17:16;;;;;;;;;;;21.90;33.90;;;;;;491384;240;1068;-69
2021/04/02 09:19:18;;;;;;;;;;;22.00;33.80;;;;;;491573;240;991;-69
2021/04/02 09:21:19;;;;;;;;;;;21.90;33.80;;;;;;491406;240;1093;-69
2021/04/02 09:23:20;;;;;;;;;;;21.90;33.80;;;;;;491529;240;1056;-69
2021/04/02 09:25:24;;;;;;;;;;;21.90;33.80;;;;;;491464;240;1234;-69
2021/04/02 09:27:23;;;;;;;;;;;21.90;33.60;;;;;;491401;241;1394;-69
2021/04/02 09:29:24;;;;;;;;;;;22.00;33.60;;;;;;491632;240;1125;-69
2021/04/02 09:31:26;;;;;;;;;;;22.00;33.60;;;;;;491466;240;1195;-69
2021/04/02 09:33:27;;;;;;;;;;;21.90;33.60;;;;;;491283;240;2180;-69
2021/04/02 09:35:28;;;;;;;;;;;22.00;33.50;;;;;;491483;240;1257;-69
2021/04/02 09:37:29;;;;;;;;;;;22.00;33.50;;;;;;491545;240;1387;-69
2021/04/02 09:39:31;;;;;;;;;;;22.00;33.50;;;;;;491439;240;978;-69
2021/04/02 09:41:32;;;;;;;;;;;22.00;33.50;;;;;;491442;240;1162;-69
2021/04/02 09:43:33;;;;;;;;;;;22.10;33.40;;;;;;491513;240;1193;-69
2021/04/02 09:45:34;;;;;;;;;;;22.00;33.40;;;;;;491370;240;1088;-69
2021/04/02 09:47:36;;;;;;;;;;;22.10;33.20;;;;;;491381;240;1155;-69
2021/04/02 09:49:37;;;;;;;;;;;22.00;33.30;;;;;;491287;240;1099;-69
2021/04/02 09:51:38;;;;;;;;;;;21.90;33.40;;;;;;491363;240;1305;-69
2021/04/02 09:53:40;;;;;;;;;;;21.90;33.40;;;;;;491495;240;2180;-69
2021/04/02 09:55:41;;;;;;;;;;;22.00;33.50;;;;;;491392;240;1041;-69
2021/04/02 09:57:42;;;;;;;;;;;21.90;33.40;;;;;;491431;240;1179;-69
2021/04/02 09:59:43;;;;;;;;;;;21.90;33.50;;;;;;491521;240;1037;-69
2021/04/02 10:01:45;;;;;;;;;;;22.00;33.30;;;;;;491474;240;1062;-69
2021/04/02 10:03:46;;;;;;;;;;;22.00;33.40;;;;;;491494;240;977;-69
2021/04/02 10:05:47;;;;;;;;;;;22.00;33.30;;;;;;491512;240;1070;-69
2021/04/02 10:07:49;;;;;;;;;;;22.00;33.40;;;;;;491537;240;1158;-69
2021/04/02 10:09:50;;;;;;;;;;;22.00;33.50;;;;;;491356;240;1111;-69
2021/04/02 10:11:52;;;;;;;;;;;22.00;33.50;;;;;;491387;240;1171;-69
2021/04/02 10:13:53;;;;;;;;;;;22.00;33.50;;;;;;491427;240;2128;-69
2021/04/02 10:15:54;;;;;;;;;;;22.10;33.60;;;;;;491392;240;1143;-69
2021/04/02 10:17:56;;;;;;;;;;;22.00;33.70;;;;;;491457;240;1071;-69
2021/04/02 10:19:57;;;;;;;;;;;22.10;33.60;;;;;;491490;240;1055;-69
2021/04/02 10:21:58;;;;;;;;;;;22.00;33.70;;;;;;491445;240;1089;-69
2021/04/02 10:24:00;;;;;;;;;;;22.00;33.70;;;;;;491546;240;984;-69
2021/04/02 10:26:01;;;;;;;;;;;22.10;33.60;;;;;;491530;240;1016;-69
2021/04/02 10:28:02;;;;;;;;;;;22.00;33.70;;;;;;491623;240;1170;-69
2021/04/02 10:30:03;;;;;;;;;;;22.00;33.80;;;;;;491491;240;1050;-69
2021/04/02 10:32:05;;;;;;;;;;;22.10;33.70;;;;;;491471;240;1023;-69
2021/04/02 10:34:06;;;;;;;;;;;22.00;33.70;;;;;;491357;240;2180;-69
2021/04/02 10:36:07;;;;;;;;;;;22.00;33.70;;;;;;491472;240;966;-69
2021/04/02 10:38:08;;;;;;;;;;;22.00;33.80;;;;;;491606;240;1155;-69
2021/04/02 10:40:10;;;;;;;;;;;21.90;33.80;;;;;;491282;240;1075;-69
2021/04/02 10:42:11;;;;;;;;;;;22.00;33.80;;;;;;491404;240;1198;-69
2021/04/02 10:44:12;;;;;;;;;;;22.10;33.80;;;;;;491410;240;1014;-70
2021/04/02 10:46:14;;;;;;;;;;;22.00;33.90;;;;;;491439;240;1143;-69
2021/04/02 10:48:15;;;;;;;;;;;22.00;34.00;;;;;;491502;240;1179;-69
2021/04/02 10:50:16;;;;;;;;;;;21.90;34.00;;;;;;491488;240;1039;-69
2021/04/02 10:52:17;;;;;;;;;;;21.90;34.00;;;;;;491360;240;1227;-69
2021/04/02 10:54:19;;;;;;;;;;;22.00;34.10;;;;;;491526;240;2120;-69
2021/04/02 10:56:20;;;;;;;;;;;21.90;34.10;;;;;;491543;240;1177;-68
2021/04/02 10:58:21;;;;;;;;;;;21.90;34.20;;;;;;491631;240;1154;-69
2021/04/02 11:00:23;;;;;;;;;;;21.90;34.20;;;;;;491432;240;1061;-69
2021/04/02 11:02:24;;;;;;;;;;;21.90;34.40;;;;;;491534;240;1074;-69
2021/04/02 11:04:25;;;;;;;;;;;21.90;34.40;;;;;;491592;240;1080;-69
2021/04/02 11:06:26;;;;;;;;;;;21.90;34.40;;;;;;491500;240;1115;-69
2021/04/02 11:08:28;;;;;;;;;;;21.90;34.20;;;;;;491541;240;1072;-69
2021/04/02 11:10:29;;;;;;;;;;;21.90;34.40;;;;;;491497;240;1014;-69
2021/04/02 11:12:31;;;;;;;;;;;22.00;34.40;;;;;;491510;240;1169;-69
2021/04/02 11:14:32;;;;;;;;;;;21.90;34.50;;;;;;491399;240;2179;-69
2021/04/02 11:16:33;;;;;;;;;;;21.90;34.40;;;;;;491446;240;1244;-69
2021/04/02 11:18:34;;;;;;;;;;;21.90;34.40;;;;;;491518;240;1135;-69
2021/04/02 11:20:35;;;;;;;;;;;21.90;34.20;;;;;;491459;240;1041;-69
2021/04/02 11:22:37;;;;;;;;;;;22.10;34.30;;;;;;491599;240;961;-69
2021/04/02 11:24:38;;;;;;;;;;;22.00;34.30;;;;;;491559;240;1027;-69
2021/04/02 11:26:39;;;;;;;;;;;22.00;34.40;;;;;;491557;240;991;-69
2021/04/02 11:28:41;;;;;;;;;;;21.90;34.30;;;;;;491541;240;1385;-69
2021/04/02 11:30:42;;;;;;;;;;;22.00;34.20;;;;;;491388;240;966;-69
2021/04/02 11:32:43;;;;;;;;;;;22.10;34.20;;;;;;491485;240;2183;-69
2021/04/02 11:34:44;;;;;;;;;;;21.90;34.20;;;;;;491511;240;1258;-69
2021/04/02 11:36:46;;;;;;;;;;;22.00;34.10;;;;;;491471;240;1087;-69
2021/04/02 11:38:47;;;;;;;;;;;22.00;34.20;;;;;;491455;240;1334;-69
2021/04/02 11:40:48;;;;;;;;;;;21.90;34.30;;;;;;491492;240;962;-69
2021/04/02 11:42:49;;;;;;;;;;;21.90;34.10;;;;;;491618;240;1335;-69
2021/04/02 11:44:51;;;;;;;;;;;22.00;34.00;;;;;;491483;240;963;-69
2021/04/02 11:46:52;;;;;;;;;;;22.00;34.00;;;;;;491691;240;1081;-69
2021/04/02 11:48:53;;;;;;;;;;;21.90;34.10;;;;;;491580;240;1107;-69
2021/04/02 11:50:54;;;;;;;;;;;22.00;34.00;;;;;;491565;240;1073;-69
2021/04/02 11:52:56;;;;;;;;;;;21.90;34.10;;;;;;491611;240;2183;-69
2021/04/02 11:54:57;;;;;;;;;;;21.90;34.10;;;;;;491534;240;1000;-69
2021/04/02 11:56:58;;;;;;;;;;;21.90;34.20;;;;;;491567;240;1100;-69
2021/04/02 11:59:00;;;;;;;;;;;21.90;34.10;;;;;;491575;240;1168;-69